Terminal Aerodrome Forecast
Issued by NWS

Home | Current Version | Previous Version | Text Only | Print | Product List | Glossary On
Versions: 1 2 3 4 5 6 7 8 9 10 11 12 13 14 15 16 17
000
FTUS44 KBMX 312300
TAFEET
TAF
KEET 312329Z 0100/0124 33012G24KT P6SM BKN025 OVC040
     FM010300 33013KT P6SM SCT040
     FM011500 33017G25KT P6SM SKC=

USA.gov is the U.S. government's official web portal to all federal, state and local government web resources and services.